第七屆(2016)北區豐盛人生健樂長跑比賽
4 DEC, 2016 Saturday Temperature : 20°C;  Humidity : 81%
5公里跑

RaceCatNameChi
組別名稱

RkOverall
賽程總名次
RkCat
組別名次
RkGender
性別名次
Bib
號碼布編號
NameEng
英文姓名
NameChi
中文姓名

Gender
性別

OfficialTime
大會時間
5公里體驗組-男子 1 1 1 H1104 WATKINGLONG 屈景朗 M 00:17:00
5公里體驗組-男子 2 2 2 H1029 HO MAN LIT 何汶烈 M 00:17:51
5公里體驗組-男子 3 3 3 H1025 SO TSZ YAN 蘇梓仁 M 00:18:41
5公里學生乙組-男子 4 1 4 5086 WONG KWUN MING 黃冠銘 M 00:19:34
5公里學生丙組-男子 5 1 5 H4009 KWONG KAM KAI 鄺錦佳 M 00:19:36
5公里學生乙組-男子 6 2 6 H3081 NG TSZ LONG 吳梓朗 M 00:19:43
5公里體驗組-男子 7 4 7 H1015 LEUNG KWOK SHING 梁國成 M 00:19:54
5公里體驗組-男子 8 5 8 H1115 WONG MING CHUN M 00:20:11
5公里學生乙組-男子 9 3 9 H3015 HO SKY 何朗天 M 00:20:45
5公里體驗組-男子 10 6 10 H1021 LAU CHUN IP 劉竣業 M 00:20:46
5公里學生乙組-男子 11 4 11 H3019 CHAN CHUN WING 陳鎮榮 M 00:20:48
5公里體驗組-男子 12 7 12 H1078 WONG CHUN SING 黃俊星 M 00:21:13
5公里學生乙組-男子 13 5 13 H3013 YIP KONG CHUN 葉江春 M 00:21:16
5公里學生乙組-男子 14 6 14 H3030 LIE CHUN YIN 李俊賢 M 00:21:23
5公里學生丙組-男子 15 2 15 H4024 CHEUNG KWOK CHUN 張國俊 M 00:21:24
5公里學生乙組-男子 16 7 16 H3020 LAU HO FAI 劉浩輝 M 00:21:27
5公里學生丙組-男子 17 3 17 H4061 YAU NAM KIT 邱楠杰 M 00:21:27
5公里體驗組-男子 18 8 18 H1075 TAM DICKSON JOE DICK 譚祖迪 M 00:21:28
5公里學生乙組-女子 19 1 1 H5067 溫芷喬 F 00:21:33
5公里學生乙組-男子 20 8 19 H3078 KWOK MAN HO 郭文皓 M 00:21:36
5公里學生丙組-男子 21 4 20 H4065 LO CHUN LEUNG JACK M 00:21:39
5公里體驗組-男子 22 9 21 H1110 CHAN YIK WAI 陳奕瑋 M 00:21:54
5公里學生丙組-男子 23 5 22 H4066 CHUNG CHEUK NAM 鍾卓楠 M 00:22:07
5公里學生乙組-男子 24 9 23 H3052 CHEUNG CHUNG HIM 張頌謙 M 00:22:24
5公里學生乙組-男子 25 10 24 H3004 CHU YUI LAM 朱銳霖 M 00:22:28
5公里學生乙組-男子 26 11 25 H3075 LEE HO WANG 李皓泓 M 00:22:35
5公里學生乙組-男子 27 12 26 H3077 KWOK TSUN ON 郭峻安 M 00:22:39
5公里學生乙組-男子 28 13 27 H3024 KWOK MASTER YU HIM 郭宇謙 M 00:22:43
5公里學生乙組-男子 29 14 28 H3074 文卓賢 M 00:22:44
5公里學生乙組-男子 30 15 29 H3028 YUEN HOI CHUN 袁愷駿 M 00:22:44
5公里學生乙組-男子 31 16 30 H3005 NG CTSZ WWAI 吳梓維 M 00:22:46
5公里學生乙組-男子 32 17 31 H3080 WONG YEUNG 王颺 M 00:22:47
5公里學生丙組-男子 33 6 32 H4055 NGAN HOI KIN 顏海建 M 00:22:48
5公里學生丙組-男子 34 7 33 H4054 CHEUNG HO HIN 張灝軒 M 00:23:04
5公里體驗組-男子 35 10 34 H1074 FONG YAT LONG 方日朗 M 00:23:06
5公里學生丙組-男子 36 8 35 H4060 NG KA CHUNG 吳嘉駿 M 00:23:07
5公里學生丙組-男子 37 9 36 H4059 CHUNG WAI HO 鐘偉豪 M 00:23:11
5公里學生丙組-男子 38 10 37 H4017 LEE CHUN KIT 李俊傑 M 00:23:13
5公里體驗組-男子 39 11 38 H1032 LEUNG KWAI CHIU 梁貴超 M 00:23:16
5公里學生丙組-男子 40 11 39 H4056 CHAN CHEUK HEI 陳卓熙 M 00:23:24
5公里學生乙組-男子 41 18 40 H3083 CHAN KAI SHEUNG 陳啟尚 M 00:23:25
5公里學生乙組-男子 42 19 41 H3090 LAM HO FUNG 林可豐 M 00:23:25
5公里體驗組-男子 43 12 42 H1019 CHAN WING TONG PHILIP 陳永棠 M 00:23:29
5公里學生丙組-男子 44 12 43 H4022 LI LAM YIP M 00:23:32
5公里學生乙組-女子 45 2 2 H5012 TSUI SIU YAU 徐筱悠 F 00:23:37
5公里學生乙組-男子 46 20 44 H3032 CHOW YIU KWONG 鄒曜光 M 00:23:42
5公里學生丙組-男子 47 13 45 H4023 WONG CHUN MING 黃俊銘 M 00:23:46
5公里學生乙組-男子 48 21 46 H3073 HO MAN LOK  何文樂 M 00:23:47
5公里體驗組-男子 49 13 47 H1058 WU KAM WING 胡錦榮 M 00:24:12
5公里學生乙組-男子 50 22 48 H3069 WOO CHUN NOK 胡駿諾 M 00:24:17
5公里學生乙組-男子 51 23 49 H3065 NG TSZ HEI 吳梓僖 M 00:24:20
5公里學生丙組-女子 52 1 3 H6004 LO YUK YAN  盧鈺恩 F 00:24:20
5公里體驗組-男子 53 14 50 H1096 WONG CHEUK BUN 黃焯彬 M 00:24:21
5公里學生丙組-男子 54 14 51 H4016 LAU KUI KAM 劉鉅鑫 M 00:24:28
5公里學生乙組-男子 55 24 52 H3079 CHEUNG YIN NOK 張賢諾 M 00:24:35
5公里體驗組-女子 56 1 4 H2016 WONG SUET WING 王雪詠 F 00:24:37
5公里學生丙組-男子 57 15 53 H4051 CHAN KA SING 陳珈升 M 00:24:48
5公里學生丙組-女子 58 2 5 H6001 LAW HONG NI 羅康妮 F 00:24:56
5公里學生乙組-男子 59 25 54 H3086 LIU CHIN HUNG 廖展雄 M 00:24:58
5公里體驗組-男子 60 15 55 H1098 NGAI YAU KI 倪友基 M 00:24:58
5公里學生丙組-女子 61 3 6 H6067 TANG NGA YIN 鄧雅妍 F 00:25:00
5公里學生丙組-男子 62 16 56 H4036 CHEUNG SAI HONG 張世康 M 00:25:03
5公里學生乙組-男子 63 26 57 H3076 LEUNG KA KING 梁家境 M 00:25:04
5公里體驗組-男子 64 16 58 H1043 CHAN TSZ HIN 陳梓軒 M 00:25:07
5公里體驗組-男子 65 17 59 H1089 TSANG CHI KWONG 曾志光 M 00:25:12
5公里體驗組-女子 66 2 7 H2027 LAW CHENG MAN 羅靜敏 F 00:25:16
5公里學生乙組-女子 67 3 8 H5066 FUNG SZE WAN 馮思韻 F 00:25:33
5公里體驗組-男子 68 18 60 H1018 LUK KIN FOON 陸健寬 M 00:25:35
5公里學生丙組-男子 69 17 61 H4053 WONG PAK HUNG 黃百鴻 M 00:25:56
5公里學生丙組-男子 70 18 62 H4064 WONG MING CHIT 王明哲 M 00:25:59
5公里學生乙組-男子 71 27 63 H3016 SO YUEN KAK 蘇國格 M 00:26:05
5公里學生乙組-女子 72 4 9 H5016 KWOK HOI TUNG 郭愷彤 F 00:26:07
5公里學生丙組-男子 73 19 64 H4071 ZHONG JUN TAO 鐘俊濤 M 00:26:11
5公里學生乙組-女子 74 5 10 H5064 LIU KA WAN 廖嘉昀 F 00:26:13
5公里學生丙組-男子 75 20 65 H4021 CHOI KA SHING 蔡嘉誠 M 00:26:14
5公里學生乙組-男子 76 28 66 H3021 LAU CHI FUNG 劉志鋒 M 00:26:14
5公里學生丙組-男子 77 21 67 H4008 LAI TIN LONG 賴天朗 M 00:26:16
5公里學生乙組-男子 78 29 68 H3047 NGAI LONG TIN 魏朗天 M 00:26:18
5公里學生丙組-男子 79 22 69 H4002 PANG CHI HANG 彭智恆 M 00:26:21
5公里學生丙組-男子 80 23 70 H4025 LAW YIU FUNG 林饒豐 M 00:26:29
5公里學生乙組-女子 81 6 11 H5001 YUEN PUI PUI 阮佩佩 F 00:26:31
5公里學生丙組-男子 82 24 71 H4026 LAW HO YIN GINO 羅浩然 M 00:26:32
5公里學生丙組-女子 83 4 12 H6041 TAM WING YAN 譚穎恩 F 00:26:38
5公里學生乙組-男子 84 30 72 H3010 FU HO KWAN OSCAR 符皓鈞 M 00:26:39
5公里學生乙組-女子 85 7 13 H5060 CHANG WING YAN 莊咏欣 F 00:26:40
5公里體驗組-女子 86 3 14 H2042 YIP WAN NUNG 葉運濃 F 00:26:43
5公里體驗組-男子 87 19 73 H1013 LEUNG KIN WING 梁建榮 M 00:26:43
5公里體驗組-女子 88 4 15 H2085 SIU KA PO 蕭嘉寶 F 00:26:47
5公里學生乙組-女子 89 8 16 H5053 WONG SUET YT 黃雪怡 F 00:26:49
5公里學生乙組-女子 90 9 17 H5058 YU PUI MING STEFANIE 余佩鳴 F 00:26:50
5公里體驗組-女子 91 5 18 H2081 LEUNG LAI CHING 梁麗貞 F 00:26:55
5公里體驗組-男子 92 20 74 H1090 TSANG KA LEONG 曾嘉亮 M 00:26:58
5公里學生乙組-男子 93 31 75 H3012 CHUNG SIU TO 鐘紹圖 M 00:27:01
5公里學生乙組-男子 94 32 76 H3071 CHUNG CHUN YU  鐘竣宇 M 00:27:03
5公里學生丙組-男子 95 25 77 H4004 WU CHUNG TUNG 胡震東 M 00:27:03
5公里體驗組-女子 96 6 19 H2059 CHENG KIN FONG 鄭建芳 F 00:27:04
5公里學生乙組-女子 97 10 20 H5057 TANG HAU YAN 鄧巧欣 F 00:27:05
5公里體驗組-男子 98 21 78 H1020 TSANG PING KWAN 曾炳坤 M 00:27:05
5公里學生乙組-男子 99 33 79 H3054 LIU SHING KIT TOMMY 廖誠傑 M 00:27:10
5公里學生乙組-男子 100 34 80 H3067 CHEUNG BRANDON 張皓嵐 M 00:27:10
5公里學生乙組-女子 101 11 21 H5054 LI WAI CHUNG 李慧中 F 00:27:14
5公里學生丙組-男子 102 26 81 H4037 HO CHUN WA 何振華 M 00:27:26
5公里學生丙組-男子 103 27 82 H4003 FONG KA KIU 房家橋 M 00:27:29
5公里學生乙組-男子 104 35 83 H3070 YEUNG TSZ HEI JONATHAN 楊梓希 M 00:27:34
5公里學生丙組-女子 105 5 22 H6016 KWONG TSZ CHING 鄺芷晴 F 00:27:44
5公里體驗組-女子 106 7 23 H2082 CHAN SHUK WUN 陳淑媛 F 00:27:47
5公里學生乙組-男子 107 36 84 3074 YEUNG YIU CHUNG 楊曜聰 M 00:27:49
5公里學生丙組-女子 108 6 24 H6024 CHIANG SIN YING 蔣善盈 F 00:27:50
5公里體驗組-男子 109 22 85 H1028 CHENG KA CHUN 鄭嘉進 M 00:27:55
5公里體驗組-男子 110 23 86 H1005 CHEUNG KAM WAH 張錦華 M 00:27:59
5公里體驗組-女子 111 8 25 H2028 LAW CHENG IAN ETHEL 羅靜茵 F 00:27:59
5公里學生乙組-男子 112 37 87 H3056 YICK HO CHAK 易浩澤 M 00:28:02
5公里體驗組-男子 113 24 88 H1006 FONG WAN ON 房運安 M 00:28:04
5公里體驗組-男子 114 25 89 H1044 CHOI YICK LOK 蔡譯樂 M 00:28:04
5公里學生乙組-男子 115 38 90 H3049 TANG WING HEI 鄧詠禧 M 00:28:10
5公里體驗組-男子 116 26 91 H1012 LEUNG HEUNG WING 梁享榮 M 00:28:13
5公里體驗組-男子 117 27 92 H1107 CHAN PIK HUNG M 00:28:14
5公里學生乙組-男子 118 39 93 H3038 YU TSUN IN 余峻筵 M 00:28:19
5公里學生丙組-女子 119 7 26 H6025 LEUNG HEI CHI 梁熙芝 F 00:28:25
5公里學生乙組-男子 120 40 94 H3041 CHENG KA FAI 鄭嘉輝 M 00:28:26
5公里體驗組-女子 121 9 27 H2038 LEE PUI SHEUNG 李佩湘 F 00:28:27
5公里體驗組-男子 122 28 95 H1014 CHING CHUNG PUI 程忠培 M 00:28:29
5公里學生乙組-男子 123 41 96 H3023 KAN MAN CHUNG 蕳汶聰 M 00:28:40
5公里體驗組-男子 124 29 97 H1100 LAM HO YIN M 00:28:40
5公里體驗組-男子 125 30 98 H1117 CHAN CHUN PING 陳俊平 M 00:28:49
5公里學生乙組-男子 126 42 99 H3046 LO YI 羅懿 M 00:28:49
5公里體驗組-男子 127 31 100 H1009 WONG CHUN KONG 王俊光 M 00:28:58
5公里體驗組-男子 128 32 101 H1027 CHENG SHU WING 鄭樹榮 M 00:28:58
5公里體驗組-男子 129 33 102 H1103 GO PAK HO 吳栢濠 M 00:29:00
5公里學生乙組-男子 130 43 103 H3085 LEE CHI CHIU 李志超 M 00:29:02
5公里學生乙組-男子 131 44 104 H3040 LEUNG KA PO 梁家寶 M 00:29:04
5公里學生丙組-女子 132 8 28 H6011 SO SUM YUET 蘇琛悅 F 00:29:04
5公里學生丙組-女子 133 9 29 H6058 CHAN VERONICA VICTORIA 陳朗盈 F 00:29:05
5公里學生乙組-女子 134 12 30 H5055 TSUI TSZ LAM 徐梓霖 F 00:29:07
5公里學生乙組-男子 135 45 105 H3037 TOA TUNG HIN 杜桐軒 M 00:29:15
5公里學生乙組-女子 136 13 31 H5006 SIU WING LAM 蕭詠琳 F 00:29:20
5公里學生丙組-女子 137 10 32 H6002 CHEUNG KAI CHING 張棨程 F 00:29:23
5公里體驗組-男子 138 34 106 H1049 WOO CHUN LOK 胡駿樂 M 00:29:29
5公里體驗組-男子 139 35 107 H1048 LAM YAT HEI 林逸希 M 00:29:31
5公里學生乙組-男子 140 46 108 H3060 NG SHEUNG CHING 吳尚澄 M 00:29:31
5公里學生乙組-男子 141 47 109 H3039 LAI HIU WO 賴曉和 M 00:29:37
5公里學生乙組-男子 142 48 110 H3084 CHEUNG CHUN 張俊 M 00:29:38
5公里學生乙組-女子 143 14 33 H5068 CHOY LOK YIU 蔡樂謠 F 00:29:42
5公里學生乙組-女子 144 15 34 H5035 YEUNG HIU CHING 楊曉晴 F 00:29:52
5公里學生丙組-女子 145 11 35 H6059 LAM SZE YING 林詩盈 F 00:29:55
5公里體驗組-男子 146 36 111 H1055 YIU KWOK HUNG 姚國雄 M 00:29:55
5公里體驗組-男子 147 37 112 H1066 SHIU TING HIN  蕭廷軒 M 00:29:56
5公里體驗組-女子 148 10 36 H2012 TSE YUK YIN 謝玉燕 F 00:30:01
5公里學生乙組-男子 149 49 113 H3050 WONG KAI KIT 黃啓傑 M 00:30:09
5公里體驗組-男子 150 38 114 H1095 KELVIN TSE M 00:30:10
5公里學生乙組-男子 151 50 115 H3018 LEE CHUN HEI 李俊希 M 00:30:16
5公里體驗組-男子 152 39 116 H1034 謝飛家長 M 00:30:18
5公里體驗組-女子 153 11 37 H2079 LAM PUI KUEN 林佩娟 F 00:30:21
5公里學生丙組-女子 154 12 38 H6045 CHOW CHING MAN 周靜文 F 00:30:21
5公里學生乙組-男子 155 51 117 H3059 MA CHEUK HIN 馬卓軒 M 00:30:22
5公里體驗組-男子 156 40 118 H1073 FONG SIU HO 方少豪 M 00:30:23
5公里體驗組-男子 157 41 119 H1088 TSANG CHEONG WAN  曾昌云 M 00:30:25
5公里體驗組-男子 158 42 120 H1076 CHENG CHUNG WAI 鄭忠偉 M 00:30:25
5公里體驗組-男子 159 43 121 H1092 CHANG TAK SHING 張德盛 M 00:30:26
5公里體驗組-女子 160 12 39 H2024 CHEUNG TSZ CHAI 張芷齊 F 00:30:26
5公里體驗組-男子 161 44 122 H1116 CHAN MAN WAI 陳文偉 M 00:30:28
5公里體驗組-女子 162 13 40 H2034 TONG YEE LEI 唐伊莉 F 00:30:28
5公里體驗組-男子 163 45 123 H1023 LAI KIM HO 賴劍豪 M 00:30:37
5公里體驗組-女子 164 14 41 H2022 CHUNG YUK CHING 鐘玉清 F 00:30:43
5公里體驗組-女子 165 15 42 H2001 CHIN KA LAM 錢嘉琳 F 00:30:53
5公里體驗組-男子 166 46 124 H1053 TANG PO KEUNG 鄧保強 M 00:30:55
5公里學生丙組-男子 167 28 125 H4069 WONG CHING 黃澄 M 00:30:56
5公里學生丙組-女子 168 13 43 H6063 LEE SZE SZE 李思思 F 00:30:56
5公里體驗組-男子 169 47 126 H1113 CHAN KA PING 陳家平 M 00:30:56
5公里體驗組-男子 170 48 127 H1114 KU PAK HO 古柏豪 M 00:30:57
5公里體驗組-女子 171 16 44 H2078 Li Lai Mang 李麗萌 F 00:31:02
5公里體驗組-女子 172 17 45 H2067 WONG WAI LAN 黃惠蘭 F 00:31:02
5公里體驗組-男子 173 49 128 H1109 CHAN CHI HO KEN M 00:31:03
5公里體驗組-女子 174 18 46 H2044 SHEK LAI WAN 石麗雲 F 00:31:04
5公里體驗組-女子 175 19 47 H2050 KWOK CHI FUNG 郭遲鳯 F 00:31:04
5公里學生乙組-男子 176 52 129 H3001 WONG CHING KWONG 黃政洸 M 00:31:08
5公里體驗組-女子 177 20 48 H2040 LEE SIK CHING 李適貞 F 00:31:14
5公里學生丙組-女子 178 14 49 H6008 MOK HAU CHING 莫巧晴 F 00:31:18
5公里學生丙組-女子 179 15 50 H6009 NG SZE WAI 吳詩尉 F 00:31:20
5公里體驗組-女子 180 21 51 H2019 LIE SAU KUEN 李秀娟 F 00:31:21
5公里體驗組-女子 181 22 52 H2070 LEUNG KA MAN  梁嘉汶 F 00:31:22
5公里學生丙組-男子 182 29 130 H4062 CHENG TIN LOK 鄭天樂 M 00:31:23
5公里體驗組-男子 183 50 131 H1022 SO CHI TONG 蘇志棠 M 00:31:24
5公里體驗組-女子 184 23 53 H2047 HUANG WEI YI 黃偉誼 F 00:31:31
5公里學生乙組-男子 185 53 132 H3029 WONG SHEUNG HIM 黃尚謙 M 00:31:37
5公里體驗組-女子 186 24 54 H2054 FUNG KA YAN 馮家欣 F 00:31:37
5公里體驗組-男子 187 51 133 H1064 CHENG CHUN WAI 鄭俊威 M 00:31:44
5公里學生丙組-女子 188 16 55 H6010 CHONG CHING LING 莊靜翎 F 00:31:46
5公里體驗組-女子 189 25 56 H2058 CHUNG YEE MEI 鍾綺媚 F 00:31:48
5公里體驗組-男子 190 52 134 H1072 WONG SIU TONG 黃少棠 M 00:31:52
5公里體驗組-女子 191 26 57 H2096 WONG KA LOK 黃嘉樂 F 00:31:52
5公里學生丙組-男子 192 30 135 H4018 CHU MAN KING 朱文敬 M 00:31:59
5公里學生丙組-女子 193 17 58 H6005 CHAN SZE SZE 陳詩絲 F 00:32:01
5公里學生丙組-女子 194 18 59 H6007 MOK HAU YI 莫巧怡 F 00:32:03
5公里學生乙組-女子 195 16 60 H5059 LIN YUN TING 連潤婷 F 00:32:06
5公里學生丙組-男子 196 31 136 H4058 CHAN TSZ HIN 陳子軒 M 00:32:09
5公里體驗組-女子 197 27 61 H2032 CHAN SZE KI 陳施琪 F 00:32:12
5公里學生乙組-男子 198 54 137 H3042 CHONG WAI YUK 莊偉鈺 M 00:32:14
5公里學生乙組-男子 199 55 138 H3045 LEUNG KA CHUN 梁嘉俊 M 00:32:15
5公里學生乙組-男子 200 56 139 H3064 CHIM HIU FUNG 詹曉峰 M 00:32:15
5公里體驗組-女子 201 28 62 H2045 AU LOK HING 區樂韾 F 00:32:19
5公里體驗組-男子 202 53 140 H1083 CHEUNG KAI MAN 張啟文 M 00:32:23
5公里體驗組-男子 203 54 141 H1001 LAM PUI SANG 林沛生 M 00:32:23
5公里體驗組-女子 204 29 63 H2002 YEE SHUK MING 朱淑明 F 00:32:24
5公里體驗組-女子 205 30 64 H2090 YIPCHINLING 葉芊菱 F 00:32:24
5公里體驗組-男子 206 55 142 H1002 SUEN HO YIN 孫浩然 M 00:32:28
5公里體驗組-女子 207 31 65 H2046 ZHANG XIAO PING 張小平 F 00:32:33
5公里學生乙組-女子 208 17 66 H5040 LAU SZE YUET MOON 劉詩月 F 00:32:41
5公里學生乙組-女子 209 18 67 H5046 NG YAN WAI 吳欣蔚 F 00:32:47
5公里體驗組-男子 210 56 143 H1056 TSE CHIU LAM 謝朝林 M 00:32:49
5公里體驗組-女子 211 32 68 H2052 LEE CHING MAN 李靜雯 F 00:32:52
5公里學生乙組-男子 212 57 144 H3066 WONG TSZ HO 黃梓灝 M 00:32:55
5公里體驗組-女子 213 33 69 H2065 LAI ON ON 黎安安 F 00:32:56
5公里學生乙組-男子 214 58 145 H3027 YIU WAI MING 姚偉明 M 00:32:57
5公里體驗組-女子 215 34 70 H2077 LO YIN SHEUNG 勞彥嫦 F 00:33:06
5公里體驗組-男子 216 57 146 H1051 WONG WAI KEI 王偉基 M 00:33:10
5公里體驗組-女子 217 35 71 H2051 WONG PUI SIM 王佩嬋 F 00:33:11
5公里體驗組-女子 218 36 72 H2092 CHEUNG YUNG 張蓉 F 00:33:15
5公里學生丙組-女子 219 19 73 H6015 LU YITING 盧依婷 F 00:33:15
5公里體驗組-女子 220 37 74 H2005 LEE SIU HA 李少霞 F 00:33:19
5公里體驗組-男子 221 58 147 H1059 SHIU WING KEI 邵榮基 M 00:33:29
5公里體驗組-男子 222 59 148 H1031 KWONG KA HO 鄺家豪 M 00:33:31
5公里體驗組-男子 223 60 149 H1003 HAU HON FAI PATRICK 侯漢輝 M 00:33:34
5公里學生乙組-男子 224 59 150 H3026 MOK KA WAI 莫珈瑋 M 00:33:34
5公里學生丙組-女子 225 20 75 H6057 NGAI TAK WAI 倪德惠 F 00:33:43
5公里體驗組-女子 226 38 76 H2011 KAN SUK YI WONDER 簡淑儀 F 00:33:44
5公里學生乙組-男子 227 60 151 H3082 LAI WING KIT 黎永傑 M 00:33:44
5公里體驗組-男子 228 61 152 H1016 LEE CHIN FAN 李展勲 M 00:33:46
5公里體驗組-女子 229 39 77 H2033 LAW HUNG YAN 羅洪欣 F 00:33:49
5公里體驗組-男子 230 62 153 H1030 CHAN TSZ FUNG 陳梓豐 M 00:33:49
5公里體驗組-女子 231 40 78 H2003 PANG SZE WAI 彭思慧 F 00:33:51
5公里體驗組-男子 232 63 154 H1047 KWOK WAI HUNG 郭偉雄 M 00:33:53
5公里體驗組-男子 233 64 155 H1101 NG KA WING 吳嘉榮 M 00:33:59
5公里學生丙組-男子 234 32 156 H4006 SO TSZ HO 蘇梓豪 M 00:34:01
5公里體驗組-女子 235 41 79 H2061 CHENG PUI LUEN 鄭佩鑾 F 00:34:03
5公里體驗組-女子 236 42 80 H2004 CHAU WAI CHING ZOE 周惠貞 F 00:34:05
5公里學生丙組-男子 237 33 157 H4072 MAK TSZ HIM 麥子謙 M 00:34:13
5公里體驗組-男子 238 65 158 H1007 TANG CHUN HONG 鄧縉匡 M 00:34:20
5公里體驗組-男子 239 66 159 H1017 LUK CHI HUNG 陸志雄 M 00:34:21
5公里體驗組-女子 240 43 81 H2020 TANG SEE CHAI 鄧思齊 F 00:34:22
5公里體驗組-女子 241 44 82 H2048 YUEN YUEN TING 袁婉婷 F 00:34:25
5公里體驗組-女子 242 45 83 H2049 YIP KA YEE 葉嘉儀 F 00:34:25
5公里體驗組-男子 243 67 160 H1004 LAM KAM TONG 林錦棠 M 00:34:26
5公里體驗組-男子 244 68 161 H1037 黃增祥 M 00:34:40
5公里體驗組-女子 245 46 84 H2021 CHIU YEE LEE 趙伊莉 F 00:34:47
5公里學生乙組-女子 246 19 85 H5004 HUI MEI KEI 許美琪 F 00:34:49
5公里體驗組-男子 247 69 162 H1026 TSE HOK NIN 謝鶴年 M 00:35:00
5公里學生乙組-男子 248 61 163 H3022 FAN CHUN LONG 范俊朗 M 00:35:04
5公里學生乙組-男子 249 62 164 H3025 LAU TUNG YIU 劉東堯 M 00:35:11
5公里體驗組-女子 250 47 86 H2007 CHANG KA LEE 張家莉 F 00:35:18
5公里體驗組-女子 251 48 87 H2006 CHANG WAI KUEN 張惠娟 F 00:35:18
5公里體驗組-男子 252 70 165 H1094 LAM KA WAI 林嘉韋 M 00:35:20
5公里體驗組-男子 253 71 166 H1041 黎良健 M 00:35:21
5公里體驗組-男子 254 72 167 H1067 SHIU SEK MAN  蕭錫民 M 00:35:27
5公里體驗組-女子 255 49 88 H2043 FONG KAI MAN 方佳敏 F 00:35:30
5公里體驗組-男子 256 73 168 H1080 CHEUNG WAI NAM 張偉楠 M 00:35:36
5公里體驗組-男子 257 74 169 H1079 LEUNG HOK PAN 梁學彬 M 00:35:36
5公里體驗組-女子 258 50 89 H2072 MAK KA IN 麥家妍 F 00:35:36
5公里體驗組-女子 259 51 90 H2041 WONG WAI YAN 王蔚忻 F 00:35:56
5公里學生乙組-男子 260 63 170 H3062 TAM MAN HO 譚文皓 M 00:36:01
5公里體驗組-男子 261 75 171 H1112 CHAU KWOK KEUNG 周國強 M 00:36:13
5公里體驗組-女子 262 52 91 H2056 WU CHEUK LAM 胡綽琳 F 00:36:15
5公里學生丙組-女子 263 21 92 H6030 RANG WING CHING 彭泳晴 F 00:36:17
5公里學生丙組-女子 264 22 93 H6028 NG CHIN KAM 伍千金 F 00:36:18
5公里體驗組-女子 265 53 94 H2039 LEE LAI SEANG 李麗湘 F 00:36:18
5公里學生乙組-男子 266 64 172 H3008 CHAN TSZ KIN 陳子健 M 00:36:35
5公里體驗組-女子 267 54 95 H2063 KWOK HEI YING 郭喜英 F 00:36:39
5公里學生乙組-男子 268 65 173 H3009 CHEUNG SHING HIN 張聖軒 M 00:36:41
5公里學生丙組-女子 269 23 96 H6064 YIP HAU YEE 葉巧儀 F 00:36:43
5公里體驗組-男子 270 76 174 H1065 HO YIU FUN  何耀勳 M 00:36:45
5公里體驗組-女子 271 55 97 H2031 LEUNG YUK WAH 梁玉華 F 00:36:48
5公里體驗組-女子 272 56 98 H2023 CHAN SHUK FAN 陳淑芬 F 00:36:52
5公里學生丙組-男子 273 34 175 H4045 WAN SZE HO 尹斯灝 M 00:36:58
5公里學生丙組-男子 274 35 176 H4028 CHAN KWUN HING 陳冠興 M 00:37:02
5公里學生丙組-女子 275 24 99 H6065 HO KAM YING 何錦瑩 F 00:37:02
5公里體驗組-男子 276 77 177 H1008 YACE PAI WAH 游沛華 M 00:37:03
5公里體驗組-女子 277 57 100 H2014 LAM SIU YING 藍少英 F 00:37:04
5公里學生乙組-男子 278 66 178 H3072 HUNG HIU HIN  洪曉軒 M 00:37:10
5公里學生丙組-男子 279 36 179 H4039 LEE CHUN MING 李俊銘 M 00:37:54
5公里體驗組-男子 280 78 180 H1046 WONG TAT KUEN KEN 黃達權 M 00:38:08
5公里學生乙組-男子 281 67 181 H3031 LAI PAK YIN 黎柏賢 M 00:38:09
5公里學生丙組-女子 282 25 101 H6026 MAN YAT WA F 00:38:10
5公里體驗組-男子 283 79 182 H1091 NGAN CHUN LAM 顏俊霖 M 00:38:12
5公里學生乙組-女子 284 20 102 H5039 LAU PO LING 劉寶玲 F 00:38:15
5公里體驗組-女子 285 58 103 H2095 HUNG LAI NA 洪麗娜 F 00:38:16
5公里學生乙組-女子 286 21 104 H5065 CHEUNG HIU YAN 張曉欣 F 00:38:25
5公里學生乙組-女子 287 22 105 H5003 NG HOI KEI 伍海琪 F 00:38:27
5公里學生乙組-男子 288 68 183 H3044 LEE TIN YAU 李天佑 M 00:38:31
5公里學生乙組-男子 289 69 184 H3043 KWAN KWOK TUNG 關國棟 M 00:38:31
5公里學生乙組-男子 290 70 185 H3011 CHAN MAN TAK 陳敏德 M 00:38:33
5公里體驗組-女子 291 59 106 H2057 HO WING KIT 何穎潔 F 00:38:46
5公里體驗組-女子 292 60 107 H2025 KWAN SHUN LING 閼順玲 F 00:38:49
5公里學生丙組-男子 293 37 186 H4038 JIAN CHUN HIN 簡俊軒 M 00:38:57
5公里體驗組-男子 294 80 187 H1120 TSANG HEI WAY 曾熙瑋 M 00:39:01
5公里學生丙組-男子 295 38 188 H4067 WONG MING SANG 黃銘笙 M 00:39:05
5公里學生丙組-男子 296 39 189 H4034 ZHENG HO MAN 鄭皓文 M 00:39:07
5公里學生丙組-男子 297 40 190 H4035 CHEUNG KA PO 張家宝 M 00:39:14
5公里學生丙組-女子 298 26 108 H6034 AU TSZ KI 歐子琪 F 00:39:17
5公里學生丙組-男子 299 41 191 H4044 TSUI CHI SHING 徐智城 M 00:39:17
5公里學生丙組-女子 300 27 109 H6040 LUK YAN YEE 陸殷儀 F 00:39:18
5公里體驗組-男子 301 81 192 H1068 WONG WAI LEUNG 黃偉良 M 00:39:22
5公里學生丙組-女子 302 28 110 H6042 CHAN HOI KI 陳海錡 F 00:39:32
5公里體驗組-男子 303 82 193 H1124 YAU WAI HO 丘偉豪 M 00:39:33
5公里學生乙組-女子 304 23 111 H5021 CHAU PUI KA 鄒佩嘉 F 00:39:43
5公里學生乙組-女子 305 24 112 H5037 CHAN YUEN LING 陳宛鈴 F 00:39:47
5公里學生乙組-男子 306 71 194 H3051 WONG KING CHUN 黃景俊 M 00:39:48
5公里學生丙組-男子 307 42 195 H4070 HO HO TUNG 何濠彤 M 00:39:48
5公里學生丙組-女子 308 29 113 H6021 SO TSZ TUNG 蘇芷彤 F 00:39:49
5公里學生丙組-女子 309 30 114 H6022 WU CHAU TONG 胡秋彤 F 00:39:50
5公里學生乙組-男子 310 72 196 H3055 WONG LOK YIN LOUIS 黃樂賢 M 00:39:51
5公里學生乙組-男子 311 73 197 H3058 CHONG CHUN CHUNG 莊振中 M 00:39:51
5公里體驗組-男子 312 83 198 H1040 王鴻浩 M 00:39:53
5公里體驗組-女子 313 61 115 H2009 CHOY LAI SHEUNG 蔡麗嫦 F 00:39:56
5公里體驗組-女子 314 62 116 H2062 YIU PUI SHAN F 00:39:56
5公里體驗組-女子 315 63 117 H2084 TIAN YUN XIANG 田云香 F 00:39:56
5公里學生丙組-女子 316 31 118 H6035 CHEUNG MAN YI 張敏怡 F 00:40:00
5公里體驗組-男子 317 84 199 H1050 WOO KAM FU 胡錦富 M 00:40:05
5公里學生丙組-女子 318 32 119 H6061 CHAN CHING YI 陳靜芬 F 00:40:07
5公里體驗組-女子 319 64 120 H2010 WONG WAI LING 黃蕙玲 F 00:40:08
5公里學生乙組-女子 320 25 121 H5061 NGAN KA WING 顏家詠 F 00:40:11
5公里學生丙組-男子 321 43 200 H4033 YUEN LUN HIN 阮麟軒 M 00:40:23
5公里學生丙組-女子 322 33 122 H6060 WONG YUEN FAN 黃婉芬 F 00:40:31
5公里學生丙組-男子 323 44 201 H4027 CHAN KING MING 陳景明 M 00:40:33
5公里學生乙組-女子 324 26 123 H5050 NG TSZ YAN 吳芷昕 F 00:40:34
5公里學生丙組-男子 325 45 202 H4052 HONG FAI KIT 洪暉杰 M 00:40:35
5公里學生乙組-女子 326 27 124 H5045 NG WING YAN 吳詠欣 F 00:40:35
5公里學生乙組-男子 327 74 203 H3063 WONG KA HIM 黃家謙 M 00:40:35
5公里學生乙組-女子 328 28 125 H5063 SHEK KA HEI 石嘉熙 F 00:40:41
5公里體驗組-男子 329 85 204 H1087 SIN MAN PIU 冼文標 M 00:41:00
5公里體驗組-女子 330 65 126 H2076 YEUNG WING YING 楊詠盈 F 00:41:02
5公里學生乙組-女子 331 29 127 H5010 MAK CHI KI 麥智淇 F 00:41:02
5公里學生乙組-女子 332 30 128 H5007 CHENG SUET LING 鄭雪玲 F 00:41:03
5公里體驗組-女子 333 66 129 H2017 LEE NGAI KIU 李毅翹 F 00:41:09
5公里體驗組-女子 334 67 130 H2018 MAN FUNG LING 文鳳玲 F 00:41:10
5公里學生丙組-女子 335 34 131 H6027 HAU YING HEI 侯妍希 F 00:41:14
5公里學生乙組-女子 336 31 132 H5029 TSUI LOK YAU 徐樂悠 F 00:41:15
5公里學生乙組-女子 337 32 133 H5036 YUEN WING LAM 袁穎琳 F 00:41:15
5公里體驗組-男子 338 86 205 H1069 LAI SHUN LOK 黎汛樂 M 00:41:22
5公里體驗組-女子 339 68 134 H2036 CHAN HOI YING 陳海瑛 F 00:41:48
5公里體驗組-女子 340 69 135 H2035 CHEUNG WAI YING  張慧儀 F 00:41:54
5公里學生乙組-女子 341 33 136 H5034 YEUNG CHING KA 楊晴嘉 F 00:42:05
5公里體驗組-女子 342 70 137 H2094 LEE TUNG TI 李通怡 F 00:42:10
5公里體驗組-女子 343 71 138 H2008 YIP FRANCES KWAN YEE 葉筠儀 F 00:42:12
5公里體驗組-女子 344 72 139 H2030 LI PO HOP 李寶盒 F 00:42:22
5公里學生乙組-女子 345 34 140 H5030 WONG HIN NGA 黃顯雅 F 00:42:25
5公里學生乙組-女子 346 35 141 H5018 PANG SIN YING 彭羡盈 F 00:42:25
5公里體驗組-女子 347 73 142 H2013 LAM SIU HUNG 藍少雄 F 00:42:33
5公里學生丙組-男子 348 46 206 H4031 SO SZE CHAI 蘇斯齊 M 00:42:34
5公里學生乙組-男子 349 75 207 H3035 SIT TING TUNG OSCAR 薛鋌冬 M 00:42:37
5公里學生乙組-男子 350 76 208 H3033 CHOW TIMMY 周天恩 M 00:42:40
5公里學生乙組-女子 351 36 143 H5062 CHEUNG WING YI 張詠怡 F 00:42:49
5公里學生乙組-男子 352 77 209 H3034 FUNG YUEN KIU 馮遠蕎 M 00:42:52
5公里學生乙組-女子 353 37 144 H5025 LIU WING YAN 廖頴恩 F 00:42:55
5公里學生乙組-女子 354 38 145 H5052 YU TIM TIM 余點點 F 00:42:57
5公里學生丙組-女子 355 35 146 H6014 KWOK TSZ WING 郭芷泳 F 00:43:00
5公里學生丙組-男子 356 47 210 H4050 YU MAN KI 余文琪 M 00:43:01
5公里體驗組-女子 357 74 147 9177 YIM PO LING 嚴寶玲 F 00:43:08
5公里學生丙組-女子 358 36 148 H6033 NG WING TUNG 吳泳彤 F 00:43:11
5公里體驗組-女子 359 75 149 H2037 WONG PIK KAM 王碧金 F 00:43:20
5公里學生乙組-女子 360 39 150 H5022 CHEUNG ON YIU 張安瑤 F 00:43:23
5公里學生丙組-男子 361 48 211 H4005 WY LOK HIN 胡樂軒 M 00:43:52
5公里體驗組-女子 362 76 151 H2069 LEUNG LAI LING 梁麗玲 F 00:44:10
5公里學生丙組-男子